Time;durP1;ratioP1;P1;durP2;ratioP2;P2;SDS_P1;SDS_P2;PMS_P1;PMS_P2;Temp;Humidity;BMP_temperature;BMP_pressure;BME280_temperature;BME280_humidity;BME280_pressure;Samples;Min_cycle;Max_cycle;Signal;HPM_P1;HPM_P2
2022/05/18 00:00:28;;;;;;;;;5.00;4.00;;;;;25.91;48.64;101531.41;5073073;27;45483;-52
2022/05/18 00:03:06;;;;;;;;;5.75;4.25;;;;;25.92;48.81;101537.66;5063632;28;45461;-52
2022/05/18 00:05:32;;;;;;;;;4.50;4.25;;;;;25.89;48.30;101541.50;5066704;28;46079;-51
2022/05/18 00:07:58;;;;;;;;;5.00;5.00;;;;;25.89;48.83;101538.81;5063023;28;45314;-53
2022/05/18 00:10:24;;;;;;;;;6.25;4.75;;;;;25.85;48.83;101546.44;5063260;28;45442;-49
2022/05/18 00:12:50;;;;;;;;;4.00;4.00;;;;;25.82;49.01;101540.50;5063355;28;45317;-53
2022/05/18 00:15:18;;;;;;;;;6.75;5.00;;;;;25.79;49.27;101544.41;5069244;28;46117;-48
2022/05/18 00:17:44;;;;;;;;;5.75;5.75;;;;;25.76;49.55;101547.44;5069754;28;45370;-51
2022/05/18 00:20:10;;;;;;;;;7.00;5.75;;;;;25.72;49.55;101553.34;5073814;27;45509;-52
2022/05/18 00:22:50;;;;;;;;;4.50;4.50;;;;;25.67;50.01;101544.88;5073263;28;45471;-52
2022/05/18 00:25:17;;;;;;;;;6.50;5.00;;;;;25.61;49.90;101547.25;5071077;28;46147;-48
2022/05/18 00:27:43;;;;;;;;;6.75;5.00;;;;;25.57;50.20;101551.28;5073010;28;45309;-48
2022/05/18 00:30:11;;;;;;;;;7.00;6.00;;;;;25.52;50.44;101545.59;5074031;28;45294;-51
2022/05/18 00:32:36;;;;;;;;;8.00;6.00;;;;;25.51;50.26;101551.13;5068465;28;46367;-51
2022/05/18 00:35:02;;;;;;;;;11.75;6.50;;;;;25.48;50.86;101562.25;5062743;28;46022;-50
2022/05/18 00:37:28;;;;;;;;;8.25;5.75;;;;;25.44;51.29;101569.03;5062489;28;46344;-50
2022/05/18 00:39:53;;;;;;;;;6.50;6.25;;;;;25.36;51.06;101564.47;5067745;28;45524;-50
2022/05/18 00:42:24;;;;;;;;;6.75;5.00;;;;;25.28;51.85;101576.09;5072987;28;45455;-49
2022/05/18 00:44:50;;;;;;;;;7.00;5.75;;;;;25.17;52.23;101573.69;5071673;28;46074;-47
2022/05/18 00:47:15;;;;;;;;;3.00;2.00;;;;;25.08;52.16;101563.91;5072986;28;45368;-51
2022/05/18 00:49:45;;;;;;;;;5.00;5.00;;;;;25.01;52.07;101573.63;5072245;27;45477;-50
2022/05/18 00:52:12;;;;;;;;;5.00;4.00;;;;;24.93;52.18;101573.59;5072077;28;45424;-49
2022/05/18 00:54:38;;;;;;;;;4.00;4.00;;;;;24.85;52.25;101577.13;5072085;27;45481;-49
2022/05/18 00:57:22;;;;;;;;;5.75;3.75;;;;;24.81;52.46;101580.31;5070343;28;45421;-50
2022/05/18 01:00:04;;;;;;;;;4.00;4.00;;;;;24.77;52.29;101579.78;5071576;28;45468;-52
2022/05/18 01:02:35;;;;;;;;;5.00;5.00;;;;;24.73;52.73;101583.81;5071905;28;45295;-49
2022/05/18 01:05:04;;;;;;;;;5.75;5.00;;;;;24.69;53.02;101587.84;5069220;28;45266;-49
2022/05/18 01:07:34;;;;;;;;;4.25;4.25;;;;;24.65;52.81;101591.88;5071671;28;45387;-52
2022/05/18 01:10:00;;;;;;;;;5.75;4.75;;;;;24.62;52.91;101598.41;5068458;27;45311;-51
2022/05/18 01:12:26;;;;;;;;;7.75;5.25;;;;;24.56;53.24;101604.44;5072413;28;45360;-50
2022/05/18 01:15:00;;;;;;;;;5.75;5.50;;;;;24.49;53.50;101600.72;5073511;28;46673;-51
2022/05/18 01:17:33;;;;;;;;;7.00;5.00;;;;;24.44;53.57;101600.34;5071561;28;45221;-52
2022/05/18 01:20:01;;;;;;;;;8.50;6.25;;;;;24.42;54.19;101597.00;5070375;28;45429;-49
2022/05/18 01:22:45;;;;;;;;;7.50;4.00;;;;;24.37;54.09;101591.22;5072352;28;45370;-49
2022/05/18 01:25:22;;;;;;;;;4.25;4.00;;;;;24.35;53.77;101602.16;5072257;28;45896;-53
2022/05/18 01:27:48;;;;;;;;;5.00;5.00;;;;;24.35;54.51;101604.84;5072241;28;45353;-52
2022/05/18 01:30:14;;;;;;;;;6.00;4.00;;;;;24.32;54.07;101615.94;5069848;27;45443;-52
2022/05/18 01:32:48;;;;;;;;;3.00;3.00;;;;;24.27;54.35;101610.16;5069634;28;45475;-50
2022/05/18 01:35:17;;;;;;;;;5.00;5.00;;;;;24.21;54.66;101611.63;5070375;28;45626;-51
2022/05/18 01:37:43;;;;;;;;;5.75;5.00;;;;;24.12;54.75;101606.38;5072075;28;45429;-52
2022/05/18 01:40:19;;;;;;;;;6.25;3.00;;;;;24.05;55.09;101606.16;5071715;28;45335;-49
2022/05/18 01:42:46;;;;;;;;;7.00;5.00;;;;;24.03;55.79;101607.31;5070963;28;45248;-48
2022/05/18 01:45:12;;;;;;;;;6.00;4.25;;;;;23.95;55.55;101608.94;5069510;28;45586;-52
2022/05/18 01:47:40;;;;;;;;;8.00;5.75;;;;;23.90;55.94;101616.63;5068489;28;45628;-49
2022/05/18 01:50:10;;;;;;;;;5.00;5.00;;;;;23.86;56.61;101628.72;5072781;28;46455;-49
2022/05/18 01:52:37;;;;;;;;;6.50;5.75;;;;;23.80;56.31;101613.19;5067944;28;45294;-48
2022/05/18 01:55:03;;;;;;;;;7.25;5.50;;;;;23.77;56.88;101623.41;5071265;28;46037;-49
2022/05/18 01:57:29;;;;;;;;;7.00;5.00;;;;;23.74;56.93;101623.72;5072005;28;45378;-50
2022/05/18 01:59:54;;;;;;;;;6.25;6.25;;;;;23.68;57.31;101628.72;5071757;28;45301;-50
2022/05/18 02:02:22;;;;;;;;;5.00;5.00;;;;;23.66;57.06;101629.88;5072132;28;45443;-51
2022/05/18 02:04:48;;;;;;;;;7.50;6.00;;;;;23.64;57.21;101626.50;5069522;28;46128;-52
2022/05/18 02:07:13;;;;;;;;;6.00;5.00;;;;;23.64;57.04;101635.41;5070202;28;45257;-52
2022/05/18 02:09:39;;;;;;;;;5.75;3.50;;;;;23.59;56.96;101645.75;5072372;28;45211;-49
2022/05/18 02:12:08;;;;;;;;;5.25;4.75;;;;;23.53;57.39;101648.19;5071667;28;45248;-48
2022/05/18 02:14:33;;;;;;;;;5.50;5.00;;;;;23.48;57.64;101654.06;5068093;28;45358;-50
2022/05/18 02:16:59;;;;;;;;;5.00;5.00;;;;;23.44;57.84;101662.56;5069588;28;45386;-49
2022/05/18 02:19:25;;;;;;;;;5.50;5.25;;;;;23.38;57.63;101656.81;5071398;28;45465;-51
2022/05/18 02:21:50;;;;;;;;;6.25;5.00;;;;;23.36;57.77;101660.63;5072195;28;45263;-48
2022/05/18 02:24:16;;;;;;;;;6.25;5.00;;;;;23.32;58.11;101665.50;5070008;28;46472;-48
2022/05/18 02:26:42;;;;;;;;;6.75;5.00;;;;;23.29;58.20;101667.63;5070486;28;45488;-48
2022/05/18 02:29:08;;;;;;;;;5.75;4.00;;;;;23.24;57.68;101659.19;5070146;28;45489;-52
2022/05/18 02:31:34;;;;;;;;;7.00;7.00;;;;;23.18;57.88;101665.16;5072074;28;45431;-53
2022/05/18 02:33:59;;;;;;;;;6.00;5.00;;;;;23.15;58.25;101674.38;5071093;28;46066;-53
2022/05/18 02:36:26;;;;;;;;;2.00;1.00;;;;;23.09;58.13;101683.88;5070982;28;45488;-52
2022/05/18 02:38:52;;;;;;;;;4.00;3.00;;;;;23.03;57.80;101684.47;5068429;28;45425;-51
2022/05/18 02:41:18;;;;;;;;;3.00;3.00;;;;;22.97;58.15;101690.41;5070065;27;45563;-48
2022/05/18 02:43:44;;;;;;;;;3.25;3.00;;;;;22.89;57.87;101687.63;5069964;28;45339;-52
2022/05/18 02:46:16;;;;;;;;;4.00;4.00;;;;;22.83;58.13;101693.59;5071752;28;45312;-52
2022/05/18 02:48:42;;;;;;;;;4.75;4.00;;;;;22.73;57.89;101690.91;5068245;28;45400;-50
2022/05/18 02:51:09;;;;;;;;;3.75;3.75;;;;;22.68;58.06;101690.53;5070318;28;45579;-50
2022/05/18 02:53:35;;;;;;;;;2.25;2.00;;;;;22.60;57.78;101690.41;5069536;28;46099;-49
2022/05/18 02:56:06;;;;;;;;;2.00;2.00;;;;;22.52;57.54;101693.81;5069991;27;46515;-51
2022/05/18 02:58:36;;;;;;;;;3.75;2.50;;;;;22.44;57.83;101696.38;5069430;28;45452;-51
2022/05/18 03:01:10;;;;;;;;;3.50;2.00;;;;;22.41;57.62;101702.03;5071136;28;45415;-50
2022/05/18 03:03:36;;;;;;;;;5.00;2.00;;;;;22.44;57.94;101706.28;5071720;28;45349;-50
2022/05/18 03:06:03;;;;;;;;;4.25;2.25;;;;;22.42;57.41;101700.19;5071291;28;45439;-50
2022/05/18 03:08:31;;;;;;;;;2.25;2.00;;;;;22.42;57.59;101700.19;5070255;28;45449;-51
2022/05/18 03:10:57;;;;;;;;;4.50;2.50;;;;;22.44;57.70;101692.84;5068324;28;45598;-53
2022/05/18 03:13:22;;;;;;;;;2.00;1.25;;;;;22.40;57.27;101702.19;5069205;28;45326;-51
2022/05/18 03:15:48;;;;;;;;;2.00;2.00;;;;;22.37;57.21;101699.78;5069326;28;45498;-54
2022/05/18 03:18:14;;;;;;;;;2.50;1.75;;;;;22.37;57.29;101708.69;5072538;28;45251;-52
2022/05/18 03:23:35;;;;;;;;;1.50;1.50;;;;;22.31;57.03;101713.78;5068882;28;45778;-51
2022/05/18 03:26:10;;;;;;;;;1.25;1.25;;;;;22.22;56.84;101707.44;5069450;28;45393;-53
2022/05/18 03:28:41;;;;;;;;;1.25;1.00;;;;;22.16;56.66;101711.53;5072239;28;45390;-50
2022/05/18 03:31:07;;;;;;;;;1.25;1.25;;;;;22.08;56.36;101714.06;5075748;28;45344;-52
2022/05/18 03:33:34;;;;;;;;;1.00;1.00;;;;;22.06;56.86;101709.81;5073191;28;45507;-53
2022/05/18 03:35:59;;;;;;;;;2.00;2.00;;;;;22.02;56.76;101717.28;5072553;28;45322;-52
2022/05/18 03:38:26;;;;;;;;;1.75;1.75;;;;;21.99;56.99;101722.94;5072650;28;45292;-53
2022/05/18 03:40:52;;;;;;;;;3.00;2.00;;;;;21.92;56.95;101724.50;5074031;28;45499;-52
2022/05/18 03:43:19;;;;;;;;;1.50;1.00;;;;;21.84;57.39;101735.09;5074078;28;45397;-53
2022/05/18 03:45:45;;;;;;;;;2.50;2.00;;;;;21.74;57.52;101735.06;5073094;28;45321;-53
2022/05/18 03:48:13;;;;;;;;;3.00;2.75;;;;;21.66;57.64;101749.19;5072358;28;45302;-53
2022/05/18 03:50:42;;;;;;;;;2.00;2.00;;;;;21.61;57.58;101746.06;5073881;28;45267;-51
2022/05/18 03:53:08;;;;;;;;;3.00;2.00;;;;;21.57;57.66;101739.28;5075786;28;45385;-52
2022/05/18 03:55:34;;;;;;;;;1.75;0.75;;;;;21.54;57.32;101752.94;5072797;28;45203;-52
2022/05/18 03:57:59;;;;;;;;;3.50;1.50;;;;;21.52;57.77;101760.28;5072477;28;45482;-53
2022/05/18 04:00:25;;;;;;;;;2.75;1.00;;;;;21.53;57.57;101756.63;5072154;27;45427;-52
2022/05/18 04:02:51;;;;;;;;;4.00;1.75;;;;;21.55;57.28;101756.47;5072597;28;45443;-52
2022/05/18 04:05:20;;;;;;;;;2.50;1.50;;;;;21.57;57.07;101765.25;5074015;28;45340;-51
2022/05/18 04:07:46;;;;;;;;;2.50;0.75;;;;;21.52;56.84;101757.63;5073040;28;45377;-52
2022/05/18 04:10:12;;;;;;;;;4.00;1.75;;;;;21.51;57.01;101768.47;5072434;28;45369;-51
2022/05/18 04:12:38;;;;;;;;;2.00;1.00;;;;;21.49;56.68;101770.41;5071360;28;45275;-49
2022/05/18 04:15:04;;;;;;;;;1.75;1.00;;;;;21.52;57.01;101779.06;5073748;28;45212;-51
2022/05/18 04:17:30;;;;;;;;;1.50;0.75;;;;;21.53;56.94;101770.03;5069527;28;45160;-52
2022/05/18 04:19:56;;;;;;;;;2.50;2.50;;;;;21.51;56.85;101777.38;5073294;28;45208;-49
2022/05/18 04:22:23;;;;;;;;;3.50;2.00;;;;;21.44;56.57;101774.38;5072099;28;45294;-52
2022/05/18 04:24:50;;;;;;;;;1.25;0.75;;;;;21.47;57.01;101770.56;5072006;28;45305;-52
2022/05/18 04:27:15;;;;;;;;;3.75;1.50;;;;;21.50;56.77;101773.00;5073995;27;45404;-51
2022/05/18 04:29:41;;;;;;;;;1.00;1.00;;;;;21.51;56.57;101773.84;5072833;28;45487;-53
2022/05/18 04:32:07;;;;;;;;;2.00;2.00;;;;;21.49;56.58;101776.66;5072170;28;46149;-53
2022/05/18 04:34:33;;;;;;;;;0.25;0.25;;;;;21.48;56.29;101774.09;5071467;28;45302;-52
2022/05/18 04:36:58;;;;;;;;;1.75;0.50;;;;;21.49;56.39;101773.09;5072025;28;45274;-49
2022/05/18 04:39:24;;;;;;;;;2.50;1.00;;;;;21.49;56.59;101775.78;5073159;27;45472;-49
2022/05/18 04:41:50;;;;;;;;;1.00;1.00;;;;;21.50;55.91;101777.50;5072548;27;46365;-52
2022/05/18 04:44:15;;;;;;;;;2.00;1.50;;;;;21.46;55.72;101776.91;5072696;28;45436;-49
2022/05/18 04:46:41;;;;;;;;;2.25;0.75;;;;;21.41;55.72;101785.38;5071431;28;45474;-50
2022/05/18 04:49:07;;;;;;;;;1.00;0.75;;;;;21.40;56.10;101786.34;5071413;28;45383;-50
2022/05/18 04:51:33;;;;;;;;;1.00;1.00;;;;;21.41;55.94;101793.44;5073498;27;46046;-50
2022/05/18 04:53:59;;;;;;;;;1.50;1.50;;;;;21.38;55.83;101799.03;5073385;28;45570;-52
2022/05/18 04:56:25;;;;;;;;;0.00;0.00;;;;;21.38;55.79;101804.41;5071631;28;45425;-53
2022/05/18 04:58:52;;;;;;;;;2.00;1.75;;;;;21.38;56.00;101811.59;5071538;28;45288;-51
2022/05/18 05:01:17;;;;;;;;;3.75;1.00;;;;;21.39;55.92;101808.78;5072234;28;46329;-53
2022/05/18 05:03:43;;;;;;;;;3.50;1.25;;;;;21.41;55.82;101809.50;5072792;28;45176;-53
2022/05/18 05:06:09;;;;;;;;;2.25;2.00;;;;;21.40;56.26;101810.47;5072587;28;45240;-50
2022/05/18 05:08:36;;;;;;;;;2.00;1.75;;;;;21.40;56.06;101813.16;5071885;28;45543;-49
2022/05/18 05:11:02;;;;;;;;;5.50;2.00;;;;;21.40;55.96;101823.88;5070529;28;45293;-50
2022/05/18 05:13:28;;;;;;;;;3.75;2.00;;;;;21.39;56.12;101822.19;5070517;28;45288;-52
2022/05/18 05:16:04;;;;;;;;;2.75;2.00;;;;;21.43;55.68;101820.09;5073353;28;45231;-50
2022/05/18 05:18:30;;;;;;;;;4.50;2.75;;;;;21.42;55.73;101821.94;5072456;28;45488;-50
2022/05/18 05:20:55;;;;;;;;;2.50;2.50;;;;;21.41;55.68;101822.91;5071192;28;46146;-50
2022/05/18 05:23:24;;;;;;;;;1.50;1.50;;;;;21.44;55.67;101824.47;5070826;28;45331;-49
2022/05/18 05:25:50;;;;;;;;;1.75;1.75;;;;;21.49;55.58;101840.13;5062446;28;45223;-51
2022/05/18 05:28:15;;;;;;;;;0.75;0.75;;;;;21.55;55.51;101844.97;5072025;28;45185;-50
2022/05/18 05:30:41;;;;;;;;;1.00;1.00;;;;;21.60;55.44;101842.72;5061904;28;45901;-49
2022/05/18 05:33:06;;;;;;;;;2.50;0.75;;;;;21.61;54.83;101839.06;5070613;28;45342;-49
2022/05/18 05:35:32;;;;;;;;;0.75;0.75;;;;;21.61;55.20;101853.31;5062415;28;45489;-54
2022/05/18 05:37:57;;;;;;;;;1.50;0.50;;;;;21.66;54.82;101859.13;5064454;28;45288;-52
2022/05/18 05:40:23;;;;;;;;;0.25;0.00;;;;;21.68;54.68;101854.47;5063384;28;45341;-53
2022/05/18 05:42:48;;;;;;;;;1.25;1.25;;;;;21.72;54.70;101861.28;5065003;28;45370;-52
2022/05/18 05:45:14;;;;;;;;;2.75;0.75;;;;;21.75;54.40;101860.16;5062660;28;45283;-53
2022/05/18 05:47:40;;;;;;;;;3.00;1.00;;;;;21.77;54.52;101862.69;5061740;28;45264;-52
2022/05/18 05:50:06;;;;;;;;;2.50;2.00;;;;;21.80;54.42;101862.41;5068411;28;45364;-53
2022/05/18 05:52:32;;;;;;;;;2.25;2.25;;;;;21.83;54.52;101870.19;5071157;28;45315;-54
2022/05/18 05:54:59;;;;;;;;;3.75;1.25;;;;;21.86;54.00;101865.41;5072170;27;45546;-53
2022/05/18 05:57:25;;;;;;;;;1.00;1.00;;;;;21.93;54.03;101868.38;5070250;28;45342;-60
2022/05/18 05:59:51;;;;;;;;;2.25;2.00;;;;;21.95;54.08;101871.75;5061648;28;45433;-54
2022/05/18 06:02:17;;;;;;;;;2.75;1.25;;;;;21.98;53.82;101869.69;5061651;28;45406;-50
2022/05/18 06:04:43;;;;;;;;;2.75;1.25;;;;;22.08;53.83;101863.50;5061280;28;45389;-55
2022/05/18 06:07:09;;;;;;;;;1.00;1.00;;;;;22.12;52.80;101871.16;5060074;28;45418;-55
2022/05/18 06:09:35;;;;;;;;;0.00;0.00;;;;;22.16;52.76;101871.72;5060470;28;45450;-55
2022/05/18 06:12:01;;;;;;;;;2.50;0.50;;;;;22.21;52.04;101875.69;5053104;28;45564;-54
2022/05/18 06:14:27;;;;;;;;;1.50;1.50;;;;;22.23;52.51;101880.91;5058743;28;45351;-55
2022/05/18 06:16:53;;;;;;;;;0.75;0.00;;;;;22.27;52.04;101877.78;5052528;28;45491;-55
2022/05/18 06:19:18;;;;;;;;;1.00;1.00;;;;;22.36;51.93;101875.28;5060810;28;45250;-56
2022/05/18 06:21:44;;;;;;;;;2.50;1.50;;;;;22.41;51.99;101873.00;5060102;28;45409;-58
2022/05/18 06:24:10;;;;;;;;;1.75;1.00;;;;;22.49;51.78;101882.06;5061304;28;45433;-58
2022/05/18 06:26:36;;;;;;;;;3.75;2.00;;;;;22.57;51.68;101878.66;5060569;28;45508;-58
2022/05/18 06:29:03;;;;;;;;;2.00;1.75;;;;;22.66;51.36;101885.03;5056360;28;45505;-58
2022/05/18 06:31:29;;;;;;;;;2.00;1.00;;;;;22.70;50.48;101873.03;5060972;28;45356;-58
2022/05/18 06:33:55;;;;;;;;;1.00;1.00;;;;;22.75;50.29;101878.81;5061053;28;45405;-58
2022/05/18 06:36:20;;;;;;;;;2.50;2.50;;;;;22.79;50.65;101885.59;5061192;28;45394;-58
2022/05/18 06:38:46;;;;;;;;;1.00;0.00;;;;;22.79;50.28;101881.06;5059355;28;45499;-58
2022/05/18 06:41:24;;;;;;;;;1.00;1.00;;;;;22.79;49.92;101880.22;5060830;28;45387;-58
2022/05/18 06:43:58;;;;;;;;;0.00;0.00;;;;;22.78;49.96;101879.38;5061197;28;45298;-58
2022/05/18 06:46:26;;;;;;;;;2.00;2.00;;;;;22.77;49.85;101875.00;5059993;28;45482;-58
2022/05/18 06:48:52;;;;;;;;;3.00;1.75;;;;;22.82;50.57;101882.63;5060559;28;45659;-58
2022/05/18 06:51:26;;;;;;;;;0.00;0.00;;;;;22.88;50.20;101884.78;5060890;28;45455;-58
2022/05/18 06:53:53;;;;;;;;;3.00;3.00;;;;;22.94;50.03;101880.66;5059832;28;45388;-58
2022/05/18 06:56:21;;;;;;;;;2.25;1.00;;;;;22.91;50.49;101876.44;5053572;28;45542;-58
2022/05/18 06:58:48;;;;;;;;;1.50;1.00;;;;;22.97;50.29;101878.53;5060482;28;46306;-58
2022/05/18 07:01:14;;;;;;;;;0.50;0.00;;;;;22.99;49.75;101878.41;5059924;28;45904;-58
2022/05/18 07:03:40;;;;;;;;;0.75;0.00;;;;;22.97;49.67;101881.22;5060645;28;45393;-58
2022/05/18 07:06:06;;;;;;;;;2.50;2.00;;;;;22.99;50.21;101881.94;5060697;28;45227;-58
2022/05/18 07:08:31;;;;;;;;;1.00;1.00;;;;;22.97;49.86;101886.59;5060474;28;45995;-58
2022/05/18 07:10:57;;;;;;;;;0.50;0.00;;;;;22.96;49.86;101884.06;5060143;28;45505;-58
2022/05/18 07:13:23;;;;;;;;;0.25;0.25;;;;;22.96;50.25;101879.53;5060279;28;45335;-58
2022/05/18 07:15:48;;;;;;;;;2.00;0.50;;;;;22.92;49.97;101878.13;5060945;28;45563;-61
2022/05/18 07:18:15;;;;;;;;;0.00;0.00;;;;;22.90;49.91;101873.88;5060470;28;45508;-59
2022/05/18 07:20:41;;;;;;;;;1.50;1.00;;;;;22.93;50.24;101874.44;5055090;28;45692;-59
2022/05/18 07:23:07;;;;;;;;;1.00;0.00;;;;;22.93;50.32;101874.44;5057940;28;45317;-59
2022/05/18 07:25:32;;;;;;;;;3.00;0.50;;;;;22.95;50.60;101871.63;5057381;28;45610;-59
2022/05/18 07:27:58;;;;;;;;;2.75;1.50;;;;;22.98;50.70;101872.16;5059786;28;45212;-59
2022/05/18 07:30:23;;;;;;;;;1.75;1.00;;;;;22.99;50.59;101876.56;5057349;28;45469;-59
2022/05/18 07:32:49;;;;;;;;;3.50;1.50;;;;;23.02;50.47;101880.81;5059906;28;45219;-59
2022/05/18 07:35:14;;;;;;;;;2.50;1.50;;;;;23.02;50.09;101878.97;5060630;28;45345;-60
2022/05/18 07:37:40;;;;;;;;;3.75;2.25;;;;;23.06;50.58;101884.88;5059901;28;45498;-54
2022/05/18 07:40:07;;;;;;;;;0.50;0.50;;;;;23.12;50.38;101876.25;5060188;28;45218;-60
2022/05/18 07:42:33;;;;;;;;;1.00;0.50;;;;;23.17;50.65;101882.03;5059911;28;45380;-60
2022/05/18 07:44:59;;;;;;;;;2.00;2.00;;;;;23.17;50.45;101881.19;5060175;28;45468;-59
2022/05/18 07:47:32;;;;;;;;;1.25;0.50;;;;;23.16;50.44;101885.72;5068793;28;45334;-60
2022/05/18 07:49:58;;;;;;;;;0.75;0.75;;;;;23.15;50.62;101883.19;5060156;28;45456;-60
2022/05/18 07:52:24;;;;;;;;;1.75;1.75;;;;;23.17;50.75;101890.09;5060203;28;45335;-64
2022/05/18 07:54:50;;;;;;;;;1.00;1.00;;;;;23.18;50.96;101882.88;5060294;28;45343;-58
2022/05/18 07:57:17;;;;;;;;;2.00;2.00;;;;;23.20;50.32;101879.06;5065788;28;45442;-63
2022/05/18 07:59:43;;;;;;;;;2.00;2.00;;;;;23.22;50.34;101884.28;5075595;28;45288;-69
2022/05/18 08:02:09;;;;;;;;;3.00;3.00;;;;;23.27;50.60;101873.94;5059931;28;45239;-66
2022/05/18 08:04:34;;;;;;;;;2.75;1.25;;;;;23.32;50.71;101877.91;5059799;28;45441;-67
2022/05/18 08:07:00;;;;;;;;;2.50;1.50;;;;;23.38;50.32;101873.75;5059703;28;45922;-66
2022/05/18 08:09:26;;;;;;;;;2.50;1.00;;;;;23.45;51.04;101871.34;5058986;28;45470;-66
2022/05/18 08:17:21;;;;;;;;;1.25;1.25;;;;;23.59;50.33;101873.56;5062845;28;45450;-66
2022/05/18 08:19:47;;;;;;;;;1.25;1.25;;;;;23.63;50.03;101870.47;5061231;28;45331;-67
2022/05/18 08:22:14;;;;;;;;;2.00;2.00;;;;;23.71;50.34;101871.56;5058977;28;45339;-66
2022/05/18 08:24:40;;;;;;;;;2.00;2.00;;;;;23.80;49.86;101870.66;5060419;28;45446;-66
2022/05/18 08:27:16;;;;;;;;;2.25;2.00;;;;;23.83;50.05;101864.97;5060943;28;45368;-67
2022/05/18 08:29:41;;;;;;;;;1.00;1.00;;;;;23.83;50.03;101868.50;5059628;28;45418;-67
2022/05/18 08:32:07;;;;;;;;;1.75;1.00;;;;;23.85;50.22;101869.19;5058903;28;45304;-65
2022/05/18 08:34:33;;;;;;;;;2.25;1.50;;;;;23.90;49.79;101861.53;5061787;28;45374;-65
2022/05/18 08:37:00;;;;;;;;;2.25;1.75;;;;;23.92;50.18;101864.91;5062503;28;45258;-66
2022/05/18 08:39:26;;;;;;;;;1.00;1.00;;;;;23.96;50.43;101870.84;5062844;28;45363;-64
2022/05/18 08:41:52;;;;;;;;;2.50;1.00;;;;;23.94;50.59;101868.31;5062258;28;45473;-66
2022/05/18 08:44:31;;;;;;;;;3.00;2.75;;;;;24.00;50.05;101864.16;5063055;28;45564;-66
2022/05/18 08:47:06;;;;;;;;;2.50;2.00;;;;;24.06;50.35;101863.56;5065463;28;45507;-66
2022/05/18 08:49:52;;;;;;;;;3.00;1.50;;;;;24.08;50.46;101863.41;5061359;28;45359;-66
2022/05/18 08:52:39;;;;;;;;;3.00;2.00;;;;;24.13;50.53;101859.25;5058144;28;45517;-65
2022/05/18 08:55:17;;;;;;;;;2.00;2.00;;;;;24.18;50.15;101865.06;5057004;28;45240;-65
2022/05/18 08:57:48;;;;;;;;;2.00;2.00;;;;;24.27;50.61;101860.59;5061961;28;46284;-65
2022/05/18 09:00:52;;;;;;;;;4.75;3.50;;;;;24.37;50.54;101857.84;5062245;28;45460;-60
2022/05/18 09:03:21;;;;;;;;;2.00;2.00;;;;;24.38;50.24;101857.69;5042354;28;45387;-60
2022/05/18 09:06:11;;;;;;;;;4.00;2.00;;;;;24.43;49.79;101855.41;5062590;28;45587;-58
2022/05/18 09:12:10;;;;;;;;;2.75;2.75;;;;;24.62;49.42;101856.22;5050511;28;45453;-58
2022/05/18 09:14:39;;;;;;;;;2.75;2.00;;;;;24.58;49.13;101857.53;5062465;28;45449;-58
2022/05/18 09:17:24;;;;;;;;;2.75;2.75;;;;;24.59;49.71;101849.31;5062552;28;45222;-58
2022/05/18 09:20:31;;;;;;;;;4.00;3.50;;;;;24.63;49.80;101842.59;5061050;28;46810;-58
2022/05/18 09:23:40;;;;;;;;;4.25;4.25;;;;;24.70;49.65;101853.59;5054016;28;45331;-58
2022/05/18 09:26:21;;;;;;;;;1.50;1.00;;;;;24.79;50.09;101849.97;5057121;28;45382;-58
2022/05/18 09:29:14;;;;;;;;;4.50;3.00;;;;;24.91;49.58;101835.22;5058306;28;45859;-58
2022/05/18 09:31:42;;;;;;;;;3.50;3.00;;;;;24.94;49.10;101845.69;5059128;28;46189;-58
2022/05/18 09:34:10;;;;;;;;;3.00;3.00;;;;;25.03;49.46;101849.31;5060719;28;45449;-58
2022/05/18 09:36:46;;;;;;;;;3.75;3.75;;;;;25.09;49.65;101831.66;5059963;28;45428;-58
2022/05/18 09:39:15;;;;;;;;;7.50;5.00;;;;;25.14;49.44;101840.97;5060478;28;45605;-58
2022/05/18 09:41:50;;;;;;;;;5.00;5.00;;;;;25.22;49.24;101832.94;5059727;28;46224;-58
2022/05/18 09:44:23;;;;;;;;;5.75;4.75;;;;;25.31;49.34;101836.53;5058999;28;45384;-59
2022/05/18 09:46:50;;;;;;;;;4.50;3.25;;;;;25.37;49.30;101830.50;5059580;28;45496;-59
2022/05/18 09:49:27;;;;;;;;;4.00;4.00;;;;;25.46;49.08;101837.63;5057006;28;45446;-58
2022/05/18 09:51:55;;;;;;;;;3.00;3.00;;;;;25.52;49.06;101828.03;5059982;28;45492;-59
2022/05/18 09:54:21;;;;;;;;;4.75;2.75;;;;;25.57;48.78;101825.69;5054536;28;45339;-58
2022/05/18 09:56:53;;;;;;;;;4.00;3.00;;;;;25.60;48.50;101818.13;5059562;28;45366;-59
2022/05/18 09:59:25;;;;;;;;;5.50;2.25;;;;;25.68;48.28;101822.69;5059780;28;45714;-58
2022/05/18 10:07:30;;;;;;;;;4.00;3.00;;;;;25.89;47.94;101811.47;5061347;28;45216;-62
2022/05/18 10:10:11;;;;;;;;;3.00;3.00;;;;;25.95;48.22;101812.69;5057231;28;45540;-61
2022/05/18 10:12:46;;;;;;;;;7.75;4.00;;;;;26.00;47.38;101804.94;5060567;28;45354;-60
2022/05/18 10:15:32;;;;;;;;;5.50;2.25;;;;;26.04;47.78;101807.13;5046163;28;46141;-61
2022/05/18 10:18:09;;;;;;;;;1.25;1.25;;;;;26.10;47.04;101813.72;5061031;28;45328;-62
2022/05/18 10:20:36;;;;;;;;;4.00;2.00;;;;;26.13;47.26;101806.13;5059648;28;45243;-60
2022/05/18 10:23:04;;;;;;;;;2.00;2.00;;;;;26.18;46.96;101797.53;5060904;28;46189;-53
2022/05/18 10:25:47;;;;;;;;;2.00;2.00;;;;;26.23;47.04;101794.31;5062601;28;44847;-58
2022/05/18 10:28:25;;;;;;;;;2.75;2.00;;;;;26.25;46.87;101790.44;5067041;28;45326;-53
2022/05/18 10:30:57;;;;;;;;;2.25;2.25;;;;;26.26;46.59;101785.88;5062491;28;45334;-61
2022/05/18 10:33:47;;;;;;;;;2.00;2.00;;;;;26.26;46.94;101783.19;5060385;28;46294;-60
2022/05/18 10:36:16;;;;;;;;;2.00;2.00;;;;;26.34;46.64;101785.88;5056390;28;45288;-62
2022/05/18 10:38:54;;;;;;;;;2.00;2.00;;;;;26.39;46.60;101780.88;5053913;28;48916;-61
2022/05/18 10:41:26;;;;;;;;;3.25;2.75;;;;;26.42;46.56;101772.41;5059769;28;45293;-62
2022/05/18 10:43:54;;;;;;;;;2.00;2.00;;;;;26.44;46.33;101773.06;5059788;28;45421;-61
2022/05/18 10:46:34;;;;;;;;;2.00;2.00;;;;;26.49;46.23;101767.19;5060323;28;45330;-58
2022/05/18 10:49:21;;;;;;;;;9.00;6.25;;;;;26.51;46.10;101763.28;5052623;28;45318;-60
2022/05/18 10:51:49;;;;;;;;;2.75;2.00;;;;;26.60;46.21;101758.69;5052291;28;45396;-61
2022/05/18 10:54:23;;;;;;;;;1.50;1.50;;;;;26.65;46.11;101762.59;5064123;28;46366;-61
2022/05/18 10:56:49;;;;;;;;;3.00;3.00;;;;;26.68;46.03;101753.28;5059959;28;45462;-61
2022/05/18 10:59:33;;;;;;;;;2.00;2.00;;;;;26.71;45.85;101756.50;5060391;28;45275;-61
2022/05/18 11:02:09;;;;;;;;;1.75;1.75;;;;;26.70;45.83;101765.63;5060575;28;45493;-61
2022/05/18 11:04:44;;;;;;;;;2.00;2.00;;;;;26.74;45.72;101754.47;5033082;28;46460;-62
2022/05/18 11:07:10;;;;;;;;;5.00;1.00;;;;;26.81;45.03;101750.91;5059202;28;45348;-60
2022/05/18 11:09:38;;;;;;;;;1.00;1.00;;;;;26.85;44.82;101754.09;5059812;28;45265;-60
2022/05/18 11:12:26;;;;;;;;;3.00;3.00;;;;;26.89;44.85;101744.63;5059135;28;45577;-65
2022/05/18 11:14:59;;;;;;;;;3.50;2.00;;;;;26.97;44.25;101748.16;5057874;28;45417;-61
2022/05/18 11:17:46;;;;;;;;;3.00;2.00;;;;;27.03;44.05;101752.03;5059885;28;45288;-63
2022/05/18 11:20:52;;;;;;;;;3.50;2.00;;;;;27.02;43.81;101750.34;5060002;28;45281;-62
2022/05/18 11:23:48;;;;;;;;;3.25;2.50;;;;;27.05;43.80;101758.13;5059492;28;45364;-63
2022/05/18 11:26:40;;;;;;;;;3.00;1.50;;;;;27.12;43.88;101755.56;5059439;28;46347;-63
2022/05/18 11:29:18;;;;;;;;;2.00;2.00;;;;;27.14;43.64;101750.84;5057737;28;45169;-62
2022/05/18 11:32:03;;;;;;;;;4.25;2.00;;;;;27.19;43.80;101752.00;5059908;28;45392;-63
2022/05/18 11:34:34;;;;;;;;;1.00;1.00;;;;;27.24;43.70;101740.63;5060157;28;45458;-62
2022/05/18 11:37:37;;;;;;;;;4.00;4.00;;;;;27.29;43.62;101740.97;5059538;28;46287;-62
2022/05/18 11:40:22;;;;;;;;;3.75;3.75;;;;;27.38;43.92;101741.75;5054178;28;45422;-62
2022/05/18 11:42:59;;;;;;;;;1.25;1.25;;;;;27.50;43.39;101738.50;5059433;28;45431;-62
2022/05/18 11:45:53;;;;;;;;;3.00;2.00;;;;;27.61;43.13;101731.81;5059992;28;45566;-62
2022/05/18 11:48:42;;;;;;;;;2.00;2.00;;;;;27.68;43.30;101730.13;5060212;28;45650;-61
2022/05/18 11:51:33;;;;;;;;;3.50;3.50;;;;;27.73;42.37;101726.91;5056637;28;45229;-60
2022/05/18 11:54:09;;;;;;;;;2.75;2.00;;;;;27.77;42.63;101722.78;5064016;28;45343;-63